sensor_id;sensor_type;location;lat;lon;timestamp;P1;durP1;ratioP1;P2;durP2;ratioP2
73900;SDS011;62235;52.160;7.526;2023-04-19T00:01:44;8.45;;;4.63;;
73900;SDS011;62235;52.160;7.526;2023-04-19T00:04:09;6.93;;;4.07;;
73900;SDS011;62235;52.160;7.526;2023-04-19T00:06:34;6.82;;;4.25;;
73900;SDS011;62235;52.160;7.526;2023-04-19T00:09:00;6.50;;;4.00;;
73900;SDS011;62235;52.160;7.526;2023-04-19T00:11:25;5.63;;;3.15;;
73900;SDS011;62235;52.160;7.526;2023-04-19T00:13:51;4.13;;;2.80;;
73900;SDS011;62235;52.160;7.526;2023-04-19T00:16:16;7.05;;;3.90;;
73900;SDS011;62235;52.160;7.526;2023-04-19T00:18:41;7.07;;;3.83;;
73900;SDS011;62235;52.160;7.526;2023-04-19T00:21:07;4.43;;;2.60;;
73900;SDS011;62235;52.160;7.526;2023-04-19T00:23:32;6.47;;;3.50;;
73900;SDS011;62235;52.160;7.526;2023-04-19T00:25:57;7.03;;;3.80;;
73900;SDS011;62235;52.160;7.526;2023-04-19T00:28:23;6.87;;;3.87;;
73900;SDS011;62235;52.160;7.526;2023-04-19T00:30:49;5.15;;;3.13;;
73900;SDS011;62235;52.160;7.526;2023-04-19T00:33:14;6.28;;;3.80;;
73900;SDS011;62235;52.160;7.526;2023-04-19T00:35:40;7.57;;;2.47;;
73900;SDS011;62235;52.160;7.526;2023-04-19T00:38:08;7.15;;;3.92;;
73900;SDS011;62235;52.160;7.526;2023-04-19T00:40:33;7.78;;;4.00;;
73900;SDS011;62235;52.160;7.526;2023-04-19T00:42:58;7.63;;;3.72;;
73900;SDS011;62235;52.160;7.526;2023-04-19T00:45:24;7.18;;;3.35;;
73900;SDS011;62235;52.160;7.526;2023-04-19T00:47:49;11.80;;;4.55;;
73900;SDS011;62235;52.160;7.526;2023-04-19T00:50:15;6.90;;;4.22;;
73900;SDS011;62235;52.160;7.526;2023-04-19T00:52:41;7.05;;;3.80;;
73900;SDS011;62235;52.160;7.526;2023-04-19T00:55:07;4.60;;;2.80;;
73900;SDS011;62235;52.160;7.526;2023-04-19T00:57:32;3.80;;;2.08;;
73900;SDS011;62235;52.160;7.526;2023-04-19T00:59:57;7.40;;;3.92;;
73900;SDS011;62235;52.160;7.526;2023-04-19T01:02:23;9.73;;;3.60;;
73900;SDS011;62235;52.160;7.526;2023-04-19T01:04:48;7.30;;;3.30;;
73900;SDS011;62235;52.160;7.526;2023-04-19T01:07:13;4.38;;;2.28;;
73900;SDS011;62235;52.160;7.526;2023-04-19T01:09:40;4.22;;;2.45;;
73900;SDS011;62235;52.160;7.526;2023-04-19T01:12:07;7.05;;;3.95;;
73900;SDS011;62235;52.160;7.526;2023-04-19T01:14:32;6.55;;;3.58;;
73900;SDS011;62235;52.160;7.526;2023-04-19T01:16:57;4.73;;;2.33;;
73900;SDS011;62235;52.160;7.526;2023-04-19T01:19:23;7.85;;;4.40;;
73900;SDS011;62235;52.160;7.526;2023-04-19T01:21:48;7.53;;;4.70;;
73900;SDS011;62235;52.160;7.526;2023-04-19T01:24:14;6.32;;;3.30;;
73900;SDS011;62235;52.160;7.526;2023-04-19T01:26:39;6.60;;;3.97;;
73900;SDS011;62235;52.160;7.526;2023-04-19T01:29:04;6.57;;;3.50;;
73900;SDS011;62235;52.160;7.526;2023-04-19T01:31:30;6.77;;;4.07;;
73900;SDS011;62235;52.160;7.526;2023-04-19T01:33:55;6.32;;;3.75;;
73900;SDS011;62235;52.160;7.526;2023-04-19T01:36:20;7.35;;;3.67;;
73900;SDS011;62235;52.160;7.526;2023-04-19T01:38:46;7.63;;;4.07;;
73900;SDS011;62235;52.160;7.526;2023-04-19T01:41:14;6.90;;;3.85;;
73900;SDS011;62235;52.160;7.526;2023-04-19T01:43:39;7.55;;;4.05;;
73900;SDS011;62235;52.160;7.526;2023-04-19T01:46:05;5.20;;;2.03;;
73900;SDS011;62235;52.160;7.526;2023-04-19T01:48:30;6.30;;;3.63;;
73900;SDS011;62235;52.160;7.526;2023-04-19T01:50:55;6.77;;;4.20;;
73900;SDS011;62235;52.160;7.526;2023-04-19T01:53:21;4.07;;;2.37;;
73900;SDS011;62235;52.160;7.526;2023-04-19T01:55:46;9.53;;;4.13;;
73900;SDS011;62235;52.160;7.526;2023-04-19T01:58:11;6.93;;;4.22;;
73900;SDS011;62235;52.160;7.526;2023-04-19T02:00:37;5.03;;;3.33;;
73900;SDS011;62235;52.160;7.526;2023-04-19T02:03:02;6.93;;;3.00;;
73900;SDS011;62235;52.160;7.526;2023-04-19T02:05:27;4.97;;;2.53;;
73900;SDS011;62235;52.160;7.526;2023-04-19T02:07:53;5.57;;;2.60;;
73900;SDS011;62235;52.160;7.526;2023-04-19T02:10:18;8.30;;;3.70;;
73900;SDS011;62235;52.160;7.526;2023-04-19T02:12:43;5.07;;;3.08;;
73900;SDS011;62235;52.160;7.526;2023-04-19T02:15:09;7.22;;;3.47;;
73900;SDS011;62235;52.160;7.526;2023-04-19T02:17:34;6.30;;;3.50;;
73900;SDS011;62235;52.160;7.526;2023-04-19T02:20:00;5.35;;;3.30;;
73900;SDS011;62235;52.160;7.526;2023-04-19T02:22:25;4.43;;;2.13;;
73900;SDS011;62235;52.160;7.526;2023-04-19T02:24:50;4.47;;;2.73;;
73900;SDS011;62235;52.160;7.526;2023-04-19T02:27:16;3.10;;;1.70;;
73900;SDS011;62235;52.160;7.526;2023-04-19T02:29:41;3.28;;;1.02;;
73900;SDS011;62235;52.160;7.526;2023-04-19T02:32:07;3.78;;;1.67;;
73900;SDS011;62235;52.160;7.526;2023-04-19T02:34:32;3.55;;;2.03;;
73900;SDS011;62235;52.160;7.526;2023-04-19T02:36:58;3.42;;;2.10;;
73900;SDS011;62235;52.160;7.526;2023-04-19T02:39:24;4.93;;;2.60;;
73900;SDS011;62235;52.160;7.526;2023-04-19T02:41:49;7.25;;;2.58;;
73900;SDS011;62235;52.160;7.526;2023-04-19T02:44:15;4.37;;;2.57;;
73900;SDS011;62235;52.160;7.526;2023-04-19T02:46:40;4.63;;;2.58;;
73900;SDS011;62235;52.160;7.526;2023-04-19T02:49:05;5.20;;;3.22;;
73900;SDS011;62235;52.160;7.526;2023-04-19T02:51:31;3.95;;;1.75;;
73900;SDS011;62235;52.160;7.526;2023-04-19T02:53:56;2.78;;;2.30;;
73900;SDS011;62235;52.160;7.526;2023-04-19T02:56:22;6.97;;;3.80;;
73900;SDS011;62235;52.160;7.526;2023-04-19T02:58:47;4.13;;;2.03;;
73900;SDS011;62235;52.160;7.526;2023-04-19T03:01:12;6.00;;;2.77;;
73900;SDS011;62235;52.160;7.526;2023-04-19T03:03:37;8.47;;;3.30;;
73900;SDS011;62235;52.160;7.526;2023-04-19T03:06:03;6.70;;;3.37;;
73900;SDS011;62235;52.160;7.526;2023-04-19T03:08:28;5.53;;;3.20;;
73900;SDS011;62235;52.160;7.526;2023-04-19T03:10:53;7.60;;;3.30;;
73900;SDS011;62235;52.160;7.526;2023-04-19T03:13:19;7.10;;;2.42;;
73900;SDS011;62235;52.160;7.526;2023-04-19T03:15:44;4.95;;;2.95;;
73900;SDS011;62235;52.160;7.526;2023-04-19T03:18:10;4.15;;;2.28;;
73900;SDS011;62235;52.160;7.526;2023-04-19T03:20:36;4.97;;;2.33;;
73900;SDS011;62235;52.160;7.526;2023-04-19T03:23:01;5.57;;;2.88;;
73900;SDS011;62235;52.160;7.526;2023-04-19T03:25:26;4.83;;;1.97;;
73900;SDS011;62235;52.160;7.526;2023-04-19T03:27:52;5.57;;;2.33;;
73900;SDS011;62235;52.160;7.526;2023-04-19T03:30:18;7.38;;;3.78;;
73900;SDS011;62235;52.160;7.526;2023-04-19T03:32:43;5.13;;;2.42;;
73900;SDS011;62235;52.160;7.526;2023-04-19T03:35:10;4.90;;;3.20;;
73900;SDS011;62235;52.160;7.526;2023-04-19T03:37:35;5.80;;;2.80;;
73900;SDS011;62235;52.160;7.526;2023-04-19T03:40:00;6.30;;;3.00;;
73900;SDS011;62235;52.160;7.526;2023-04-19T03:42:25;5.63;;;2.83;;
73900;SDS011;62235;52.160;7.526;2023-04-19T03:44:51;3.30;;;2.30;;
73900;SDS011;62235;52.160;7.526;2023-04-19T03:47:16;6.30;;;2.80;;
73900;SDS011;62235;52.160;7.526;2023-04-19T03:49:41;4.47;;;2.20;;
73900;SDS011;62235;52.160;7.526;2023-04-19T03:52:07;2.00;;;0.97;;
73900;SDS011;62235;52.160;7.526;2023-04-19T03:54:32;3.67;;;1.77;;
73900;SDS011;62235;52.160;7.526;2023-04-19T03:56:57;3.13;;;1.77;;
73900;SDS011;62235;52.160;7.526;2023-04-19T03:59:23;3.08;;;1.27;;
73900;SDS011;62235;52.160;7.526;2023-04-19T04:01:48;6.35;;;1.83;;
73900;SDS011;62235;52.160;7.526;2023-04-19T04:04:14;5.32;;;2.22;;
73900;SDS011;62235;52.160;7.526;2023-04-19T04:06:39;3.78;;;1.77;;
73900;SDS011;62235;52.160;7.526;2023-04-19T04:09:04;3.23;;;1.40;;
73900;SDS011;62235;52.160;7.526;2023-04-19T04:11:30;12.27;;;3.00;;
73900;SDS011;62235;52.160;7.526;2023-04-19T04:13:55;5.33;;;2.47;;
73900;SDS011;62235;52.160;7.526;2023-04-19T04:16:20;4.83;;;1.80;;
73900;SDS011;62235;52.160;7.526;2023-04-19T04:18:46;2.25;;;1.13;;
73900;SDS011;62235;52.160;7.526;2023-04-19T04:21:11;3.17;;;1.53;;
73900;SDS011;62235;52.160;7.526;2023-04-19T04:23:36;3.97;;;1.60;;
73900;SDS011;62235;52.160;7.526;2023-04-19T04:26:02;3.30;;;1.50;;
73900;SDS011;62235;52.160;7.526;2023-04-19T04:28:29;2.78;;;1.75;;
73900;SDS011;62235;52.160;7.526;2023-04-19T04:30:55;4.13;;;1.83;;
73900;SDS011;62235;52.160;7.526;2023-04-19T04:33:24;2.90;;;1.15;;
73900;SDS011;62235;52.160;7.526;2023-04-19T04:35:50;3.08;;;1.77;;
73900;SDS011;62235;52.160;7.526;2023-04-19T04:38:17;2.17;;;1.42;;
73900;SDS011;62235;52.160;7.526;2023-04-19T04:40:42;4.53;;;1.85;;
73900;SDS011;62235;52.160;7.526;2023-04-19T04:43:08;5.50;;;2.35;;
73900;SDS011;62235;52.160;7.526;2023-04-19T04:45:34;5.13;;;1.73;;
73900;SDS011;62235;52.160;7.526;2023-04-19T04:48:01;3.47;;;1.38;;
73900;SDS011;62235;52.160;7.526;2023-04-19T04:50:27;6.05;;;1.42;;
73900;SDS011;62235;52.160;7.526;2023-04-19T04:52:52;4.73;;;2.63;;
73900;SDS011;62235;52.160;7.526;2023-04-19T04:55:17;3.10;;;1.70;;
73900;SDS011;62235;52.160;7.526;2023-04-19T04:57:43;4.75;;;2.40;;
73900;SDS011;62235;52.160;7.526;2023-04-19T05:00:08;3.20;;;1.73;;
73900;SDS011;62235;52.160;7.526;2023-04-19T05:02:35;6.60;;;1.63;;
73900;SDS011;62235;52.160;7.526;2023-04-19T05:05:01;5.05;;;1.80;;
73900;SDS011;62235;52.160;7.526;2023-04-19T05:07:27;3.50;;;2.70;;
73900;SDS011;62235;52.160;7.526;2023-04-19T05:09:52;3.10;;;1.80;;
73900;SDS011;62235;52.160;7.526;2023-04-19T05:12:17;3.35;;;2.00;;
73900;SDS011;62235;52.160;7.526;2023-04-19T05:14:43;2.57;;;1.47;;
73900;SDS011;62235;52.160;7.526;2023-04-19T05:17:08;3.45;;;1.88;;
73900;SDS011;62235;52.160;7.526;2023-04-19T05:19:33;6.07;;;3.30;;
73900;SDS011;62235;52.160;7.526;2023-04-19T05:21:59;3.58;;;1.65;;
73900;SDS011;62235;52.160;7.526;2023-04-19T05:24:24;4.43;;;2.07;;
73900;SDS011;62235;52.160;7.526;2023-04-19T05:26:49;4.80;;;1.80;;
73900;SDS011;62235;52.160;7.526;2023-04-19T05:29:15;1.67;;;1.00;;
73900;SDS011;62235;52.160;7.526;2023-04-19T05:31:41;4.10;;;1.80;;
73900;SDS011;62235;52.160;7.526;2023-04-19T05:34:06;5.80;;;2.53;;
73900;SDS011;62235;52.160;7.526;2023-04-19T05:36:31;5.88;;;2.60;;
73900;SDS011;62235;52.160;7.526;2023-04-19T05:38:57;1.53;;;0.90;;
73900;SDS011;62235;52.160;7.526;2023-04-19T05:41:22;3.50;;;1.53;;
73900;SDS011;62235;52.160;7.526;2023-04-19T05:43:47;2.20;;;1.53;;
73900;SDS011;62235;52.160;7.526;2023-04-19T05:46:13;1.67;;;1.20;;
73900;SDS011;62235;52.160;7.526;2023-04-19T05:48:38;5.47;;;1.80;;
73900;SDS011;62235;52.160;7.526;2023-04-19T05:51:03;1.70;;;1.23;;
73900;SDS011;62235;52.160;7.526;2023-04-19T05:53:29;3.22;;;1.38;;
73900;SDS011;62235;52.160;7.526;2023-04-19T05:55:54;2.65;;;1.92;;
73900;SDS011;62235;52.160;7.526;2023-04-19T05:58:20;2.47;;;1.60;;
73900;SDS011;62235;52.160;7.526;2023-04-19T06:00:45;2.95;;;1.25;;
73900;SDS011;62235;52.160;7.526;2023-04-19T06:03:11;6.57;;;2.03;;
73900;SDS011;62235;52.160;7.526;2023-04-19T06:05:36;3.58;;;1.50;;
73900;SDS011;62235;52.160;7.526;2023-04-19T06:08:01;3.47;;;1.83;;
73900;SDS011;62235;52.160;7.526;2023-04-19T06:10:27;4.55;;;2.20;;
73900;SDS011;62235;52.160;7.526;2023-04-19T06:12:52;3.30;;;2.13;;
73900;SDS011;62235;52.160;7.526;2023-04-19T06:15:18;2.90;;;1.67;;
73900;SDS011;62235;52.160;7.526;2023-04-19T06:17:43;4.83;;;2.00;;
73900;SDS011;62235;52.160;7.526;2023-04-19T06:20:08;0.97;;;0.80;;
73900;SDS011;62235;52.160;7.526;2023-04-19T06:22:34;3.80;;;1.98;;
73900;SDS011;62235;52.160;7.526;2023-04-19T06:25:00;1.75;;;1.20;;
73900;SDS011;62235;52.160;7.526;2023-04-19T06:27:26;1.75;;;0.93;;
73900;SDS011;62235;52.160;7.526;2023-04-19T06:29:51;3.50;;;1.70;;
73900;SDS011;62235;52.160;7.526;2023-04-19T06:32:16;3.92;;;1.80;;
73900;SDS011;62235;52.160;7.526;2023-04-19T06:34:42;5.97;;;1.30;;
73900;SDS011;62235;52.160;7.526;2023-04-19T06:37:07;3.33;;;1.73;;
73900;SDS011;62235;52.160;7.526;2023-04-19T06:39:32;4.53;;;1.53;;
73900;SDS011;62235;52.160;7.526;2023-04-19T06:41:57;1.70;;;1.00;;
73900;SDS011;62235;52.160;7.526;2023-04-19T06:44:23;2.40;;;1.23;;
73900;SDS011;62235;52.160;7.526;2023-04-19T06:46:48;4.45;;;1.27;;
73900;SDS011;62235;52.160;7.526;2023-04-19T06:49:13;1.73;;;1.00;;
73900;SDS011;62235;52.160;7.526;2023-04-19T06:51:39;3.40;;;1.60;;
73900;SDS011;62235;52.160;7.526;2023-04-19T06:54:04;4.60;;;1.40;;
73900;SDS011;62235;52.160;7.526;2023-04-19T06:56:40;2.65;;;1.33;;
73900;SDS011;62235;52.160;7.526;2023-04-19T06:59:06;4.47;;;1.88;;
73900;SDS011;62235;52.160;7.526;2023-04-19T07:01:31;4.38;;;1.55;;
73900;SDS011;62235;52.160;7.526;2023-04-19T07:03:57;2.47;;;1.80;;
73900;SDS011;62235;52.160;7.526;2023-04-19T07:06:22;5.77;;;1.53;;
73900;SDS011;62235;52.160;7.526;2023-04-19T07:08:47;4.37;;;1.80;;
73900;SDS011;62235;52.160;7.526;2023-04-19T07:11:13;1.60;;;1.07;;
73900;SDS011;62235;52.160;7.526;2023-04-19T07:13:38;0.80;;;0.60;;
73900;SDS011;62235;52.160;7.526;2023-04-19T07:16:03;2.57;;;1.10;;
73900;SDS011;62235;52.160;7.526;2023-04-19T07:18:29;3.05;;;1.45;;
73900;SDS011;62235;52.160;7.526;2023-04-19T07:20:54;2.88;;;1.10;;
73900;SDS011;62235;52.160;7.526;2023-04-19T07:23:20;3.20;;;1.30;;
73900;SDS011;62235;52.160;7.526;2023-04-19T07:25:45;0.87;;;0.40;;
73900;SDS011;62235;52.160;7.526;2023-04-19T07:28:10;4.40;;;1.60;;
73900;SDS011;62235;52.160;7.526;2023-04-19T07:30:36;3.40;;;1.50;;
73900;SDS011;62235;52.160;7.526;2023-04-19T07:33:01;1.17;;;0.77;;
73900;SDS011;62235;52.160;7.526;2023-04-19T07:35:28;4.40;;;1.65;;
73900;SDS011;62235;52.160;7.526;2023-04-19T07:37:54;3.65;;;1.50;;
73900;SDS011;62235;52.160;7.526;2023-04-19T07:40:19;2.88;;;1.70;;
73900;SDS011;62235;52.160;7.526;2023-04-19T07:42:45;3.45;;;1.70;;
73900;SDS011;62235;52.160;7.526;2023-04-19T07:45:10;1.88;;;0.95;;
73900;SDS011;62235;52.160;7.526;2023-04-19T07:47:36;2.15;;;1.05;;
73900;SDS011;62235;52.160;7.526;2023-04-19T07:50:01;3.40;;;1.23;;
73900;SDS011;62235;52.160;7.526;2023-04-19T07:52:27;1.98;;;1.17;;
73900;SDS011;62235;52.160;7.526;2023-04-19T07:54:52;4.25;;;1.50;;
73900;SDS011;62235;52.160;7.526;2023-04-19T07:57:18;2.70;;;1.30;;
73900;SDS011;62235;52.160;7.526;2023-04-19T07:59:43;8.05;;;2.35;;
73900;SDS011;62235;52.160;7.526;2023-04-19T08:02:08;3.10;;;1.15;;
73900;SDS011;62235;52.160;7.526;2023-04-19T08:04:34;2.38;;;0.90;;
73900;SDS011;62235;52.160;7.526;2023-04-19T08:06:59;4.70;;;1.50;;
73900;SDS011;62235;52.160;7.526;2023-04-19T08:09:24;2.45;;;1.40;;
73900;SDS011;62235;52.160;7.526;2023-04-19T08:11:50;2.38;;;1.00;;
73900;SDS011;62235;52.160;7.526;2023-04-19T08:14:15;3.17;;;1.75;;
73900;SDS011;62235;52.160;7.526;2023-04-19T08:16:40;1.83;;;0.87;;
73900;SDS011;62235;52.160;7.526;2023-04-19T08:19:06;6.17;;;1.10;;
73900;SDS011;62235;52.160;7.526;2023-04-19T08:21:31;5.37;;;1.83;;
73900;SDS011;62235;52.160;7.526;2023-04-19T08:23:56;2.22;;;1.02;;
73900;SDS011;62235;52.160;7.526;2023-04-19T08:26:22;3.23;;;1.77;;
73900;SDS011;62235;52.160;7.526;2023-04-19T08:28:47;2.03;;;1.20;;
73900;SDS011;62235;52.160;7.526;2023-04-19T08:31:14;4.82;;;2.17;;
73900;SDS011;62235;52.160;7.526;2023-04-19T08:33:40;4.65;;;1.35;;
73900;SDS011;62235;52.160;7.526;2023-04-19T08:36:06;2.10;;;1.30;;
73900;SDS011;62235;52.160;7.526;2023-04-19T08:38:31;4.50;;;1.70;;
73900;SDS011;62235;52.160;7.526;2023-04-19T08:40:57;6.23;;;1.73;;
73900;SDS011;62235;52.160;7.526;2023-04-19T08:43:23;2.70;;;1.60;;
73900;SDS011;62235;52.160;7.526;2023-04-19T08:45:50;2.00;;;0.98;;
73900;SDS011;62235;52.160;7.526;2023-04-19T08:48:15;1.33;;;0.85;;
73900;SDS011;62235;52.160;7.526;2023-04-19T08:50:41;2.50;;;1.63;;
73900;SDS011;62235;52.160;7.526;2023-04-19T08:53:08;3.95;;;1.23;;
73900;SDS011;62235;52.160;7.526;2023-04-19T08:55:35;3.42;;;2.10;;
73900;SDS011;62235;52.160;7.526;2023-04-19T08:58:03;1.60;;;1.20;;
73900;SDS011;62235;52.160;7.526;2023-04-19T09:00:29;3.40;;;1.88;;
73900;SDS011;62235;52.160;7.526;2023-04-19T09:02:55;4.20;;;1.63;;
73900;SDS011;62235;52.160;7.526;2023-04-19T09:05:20;2.17;;;1.33;;
73900;SDS011;62235;52.160;7.526;2023-04-19T09:07:46;3.53;;;1.40;;
73900;SDS011;62235;52.160;7.526;2023-04-19T09:10:15;4.18;;;2.22;;
73900;SDS011;62235;52.160;7.526;2023-04-19T09:12:42;3.28;;;1.67;;
73900;SDS011;62235;52.160;7.526;2023-04-19T09:15:37;2.05;;;1.38;;
73900;SDS011;62235;52.160;7.526;2023-04-19T09:18:05;1.77;;;1.17;;
73900;SDS011;62235;52.160;7.526;2023-04-19T09:20:43;2.50;;;1.17;;
73900;SDS011;62235;52.160;7.526;2023-04-19T09:23:09;3.35;;;1.80;;
73900;SDS011;62235;52.160;7.526;2023-04-19T09:25:36;3.25;;;1.50;;
73900;SDS011;62235;52.160;7.526;2023-04-19T09:28:11;3.38;;;2.00;;
73900;SDS011;62235;52.160;7.526;2023-04-19T09:30:38;1.67;;;1.02;;
73900;SDS011;62235;52.160;7.526;2023-04-19T09:33:04;1.60;;;1.10;;
73900;SDS011;62235;52.160;7.526;2023-04-19T09:35:39;2.60;;;1.60;;
73900;SDS011;62235;52.160;7.526;2023-04-19T09:38:05;3.53;;;1.52;;
73900;SDS011;62235;52.160;7.526;2023-04-19T09:40:31;2.70;;;1.35;;
73900;SDS011;62235;52.160;7.526;2023-04-19T09:42:56;1.98;;;1.27;;
73900;SDS011;62235;52.160;7.526;2023-04-19T09:45:22;3.00;;;1.63;;
73900;SDS011;62235;52.160;7.526;2023-04-19T09:48:04;4.30;;;1.27;;
73900;SDS011;62235;52.160;7.526;2023-04-19T09:50:31;3.53;;;1.10;;
73900;SDS011;62235;52.160;7.526;2023-04-19T09:52:57;1.77;;;0.80;;
73900;SDS011;62235;52.160;7.526;2023-04-19T09:55:23;4.75;;;1.63;;
73900;SDS011;62235;52.160;7.526;2023-04-19T09:57:48;3.38;;;1.70;;
73900;SDS011;62235;52.160;7.526;2023-04-19T10:00:13;2.53;;;1.38;;
73900;SDS011;62235;52.160;7.526;2023-04-19T10:02:39;3.25;;;1.40;;
73900;SDS011;62235;52.160;7.526;2023-04-19T10:05:06;1.90;;;0.98;;
73900;SDS011;62235;52.160;7.526;2023-04-19T10:07:32;4.35;;;1.20;;
73900;SDS011;62235;52.160;7.526;2023-04-19T10:09:58;1.83;;;1.20;;
73900;SDS011;62235;52.160;7.526;2023-04-19T10:12:25;3.00;;;1.40;;
73900;SDS011;62235;52.160;7.526;2023-04-19T10:14:52;3.05;;;1.42;;
73900;SDS011;62235;52.160;7.526;2023-04-19T10:19:44;3.63;;;1.73;;
73900;SDS011;62235;52.160;7.526;2023-04-19T10:22:11;3.17;;;2.03;;
73900;SDS011;62235;52.160;7.526;2023-04-19T10:24:38;6.95;;;2.17;;
73900;SDS011;62235;52.160;7.526;2023-04-19T10:27:10;3.47;;;1.80;;
73900;SDS011;62235;52.160;7.526;2023-04-19T10:32:40;2.97;;;1.50;;
73900;SDS011;62235;52.160;7.526;2023-04-19T10:35:06;3.22;;;2.00;;
73900;SDS011;62235;52.160;7.526;2023-04-19T10:37:33;2.83;;;1.60;;
73900;SDS011;62235;52.160;7.526;2023-04-19T10:39:58;5.57;;;2.38;;
73900;SDS011;62235;52.160;7.526;2023-04-19T10:42:24;5.13;;;2.20;;
73900;SDS011;62235;52.160;7.526;2023-04-19T10:47:52;4.95;;;2.13;;
73900;SDS011;62235;52.160;7.526;2023-04-19T10:50:17;5.30;;;1.73;;
73900;SDS011;62235;52.160;7.526;2023-04-19T10:52:43;4.47;;;2.60;;
73900;SDS011;62235;52.160;7.526;2023-04-19T10:55:08;4.80;;;2.13;;
73900;SDS011;62235;52.160;7.526;2023-04-19T10:57:59;3.28;;;2.08;;
73900;SDS011;62235;52.160;7.526;2023-04-19T11:02:55;1.83;;;1.20;;
73900;SDS011;62235;52.160;7.526;2023-04-19T11:05:20;6.57;;;1.83;;
73900;SDS011;62235;52.160;7.526;2023-04-19T11:07:46;1.70;;;0.93;;
73900;SDS011;62235;52.160;7.526;2023-04-19T11:10:11;3.10;;;1.90;;
73900;SDS011;62235;52.160;7.526;2023-04-19T11:12:40;2.70;;;1.15;;
73900;SDS011;62235;52.160;7.526;2023-04-19T11:15:06;4.25;;;2.08;;
73900;SDS011;62235;52.160;7.526;2023-04-19T11:17:33;2.17;;;1.50;;
73900;SDS011;62235;52.160;7.526;2023-04-19T11:20:04;3.88;;;1.92;;
73900;SDS011;62235;52.160;7.526;2023-04-19T11:22:36;1.95;;;1.48;;
73900;SDS011;62235;52.160;7.526;2023-04-19T11:27:48;3.33;;;1.63;;
73900;SDS011;62235;52.160;7.526;2023-04-19T11:30:18;2.35;;;1.27;;
73900;SDS011;62235;52.160;7.526;2023-04-19T11:32:46;2.55;;;1.80;;
73900;SDS011;62235;52.160;7.526;2023-04-19T11:35:12;2.75;;;1.45;;
73900;SDS011;62235;52.160;7.526;2023-04-19T11:37:38;3.92;;;1.67;;
73900;SDS011;62235;52.160;7.526;2023-04-19T11:40:07;1.80;;;1.20;;
73900;SDS011;62235;52.160;7.526;2023-04-19T11:42:33;1.90;;;1.30;;
73900;SDS011;62235;52.160;7.526;2023-04-19T11:44:59;4.50;;;1.90;;
73900;SDS011;62235;52.160;7.526;2023-04-19T11:47:25;4.00;;;2.20;;
73900;SDS011;62235;52.160;7.526;2023-04-19T11:49:51;2.83;;;1.25;;
73900;SDS011;62235;52.160;7.526;2023-04-19T11:52:22;3.35;;;1.40;;
73900;SDS011;62235;52.160;7.526;2023-04-19T11:54:49;6.55;;;3.83;;
73900;SDS011;62235;52.160;7.526;2023-04-19T11:57:25;2.97;;;1.75;;
73900;SDS011;62235;52.160;7.526;2023-04-19T12:00:07;6.05;;;1.73;;
73900;SDS011;62235;52.160;7.526;2023-04-19T12:02:39;3.05;;;1.83;;
73900;SDS011;62235;52.160;7.526;2023-04-19T12:05:08;1.58;;;1.45;;
73900;SDS011;62235;52.160;7.526;2023-04-19T12:07:34;2.50;;;1.52;;
73900;SDS011;62235;52.160;7.526;2023-04-19T12:10:06;2.67;;;1.63;;
73900;SDS011;62235;52.160;7.526;2023-04-19T12:12:34;4.00;;;2.08;;
73900;SDS011;62235;52.160;7.526;2023-04-19T12:14:59;2.78;;;1.15;;
73900;SDS011;62235;52.160;7.526;2023-04-19T12:17:24;3.17;;;1.70;;
73900;SDS011;62235;52.160;7.526;2023-04-19T12:19:50;3.38;;;1.30;;
73900;SDS011;62235;52.160;7.526;2023-04-19T12:22:17;3.50;;;1.20;;
73900;SDS011;62235;52.160;7.526;2023-04-19T12:24:49;5.75;;;1.67;;
73900;SDS011;62235;52.160;7.526;2023-04-19T12:27:15;4.15;;;2.42;;
73900;SDS011;62235;52.160;7.526;2023-04-19T12:29:41;3.78;;;1.65;;
73900;SDS011;62235;52.160;7.526;2023-04-19T12:32:08;1.75;;;1.38;;
73900;SDS011;62235;52.160;7.526;2023-04-19T12:34:34;3.30;;;1.70;;
73900;SDS011;62235;52.160;7.526;2023-04-19T12:37:00;6.43;;;2.22;;
73900;SDS011;62235;52.160;7.526;2023-04-19T12:39:27;2.40;;;1.38;;
73900;SDS011;62235;52.160;7.526;2023-04-19T12:41:52;1.77;;;0.93;;
73900;SDS011;62235;52.160;7.526;2023-04-19T12:44:18;2.70;;;1.38;;
73900;SDS011;62235;52.160;7.526;2023-04-19T12:46:43;2.40;;;1.45;;
73900;SDS011;62235;52.160;7.526;2023-04-19T12:49:09;3.40;;;1.70;;
73900;SDS011;62235;52.160;7.526;2023-04-19T12:51:34;6.78;;;1.85;;
73900;SDS011;62235;52.160;7.526;2023-04-19T12:54:00;4.07;;;2.00;;
73900;SDS011;62235;52.160;7.526;2023-04-19T12:56:26;4.85;;;2.00;;
73900;SDS011;62235;52.160;7.526;2023-04-19T12:58:51;2.70;;;1.75;;
73900;SDS011;62235;52.160;7.526;2023-04-19T13:01:17;4.10;;;1.75;;
73900;SDS011;62235;52.160;7.526;2023-04-19T13:03:42;3.08;;;1.90;;
73900;SDS011;62235;52.160;7.526;2023-04-19T13:06:08;3.88;;;2.30;;
73900;SDS011;62235;52.160;7.526;2023-04-19T13:08:35;3.72;;;2.08;;
73900;SDS011;62235;52.160;7.526;2023-04-19T13:11:02;3.10;;;2.00;;
73900;SDS011;62235;52.160;7.526;2023-04-19T13:13:27;2.40;;;1.42;;
73900;SDS011;62235;52.160;7.526;2023-04-19T13:15:53;3.03;;;2.17;;
73900;SDS011;62235;52.160;7.526;2023-04-19T13:18:19;4.78;;;1.80;;
73900;SDS011;62235;52.160;7.526;2023-04-19T13:20:44;3.42;;;1.70;;
73900;SDS011;62235;52.160;7.526;2023-04-19T13:23:09;2.88;;;1.13;;
73900;SDS011;62235;52.160;7.526;2023-04-19T13:25:35;3.30;;;1.90;;
73900;SDS011;62235;52.160;7.526;2023-04-19T13:28:00;5.07;;;2.73;;
73900;SDS011;62235;52.160;7.526;2023-04-19T13:30:26;4.90;;;2.00;;
73900;SDS011;62235;52.160;7.526;2023-04-19T13:32:51;2.17;;;1.30;;
73900;SDS011;62235;52.160;7.526;2023-04-19T13:35:16;3.03;;;1.83;;
73900;SDS011;62235;52.160;7.526;2023-04-19T13:37:42;2.50;;;1.23;;
73900;SDS011;62235;52.160;7.526;2023-04-19T13:40:08;4.90;;;1.45;;
73900;SDS011;62235;52.160;7.526;2023-04-19T13:42:34;3.25;;;1.25;;
73900;SDS011;62235;52.160;7.526;2023-04-19T13:45:00;2.70;;;1.33;;
73900;SDS011;62235;52.160;7.526;2023-04-19T13:47:25;2.60;;;1.63;;
73900;SDS011;62235;52.160;7.526;2023-04-19T13:49:50;2.90;;;1.15;;
73900;SDS011;62235;52.160;7.526;2023-04-19T13:52:19;3.90;;;1.67;;
73900;SDS011;62235;52.160;7.526;2023-04-19T13:54:47;4.40;;;1.60;;
73900;SDS011;62235;52.160;7.526;2023-04-19T13:57:13;2.45;;;1.30;;
73900;SDS011;62235;52.160;7.526;2023-04-19T13:59:38;3.67;;;2.10;;
73900;SDS011;62235;52.160;7.526;2023-04-19T14:02:03;2.37;;;1.27;;
73900;SDS011;62235;52.160;7.526;2023-04-19T14:04:29;3.22;;;1.20;;
73900;SDS011;62235;52.160;7.526;2023-04-19T14:06:54;1.80;;;1.27;;
73900;SDS011;62235;52.160;7.526;2023-04-19T14:09:20;3.38;;;1.08;;
73900;SDS011;62235;52.160;7.526;2023-04-19T14:11:45;1.65;;;1.17;;
73900;SDS011;62235;52.160;7.526;2023-04-19T14:14:12;1.58;;;1.02;;
73900;SDS011;62235;52.160;7.526;2023-04-19T14:16:38;2.03;;;0.80;;
73900;SDS011;62235;52.160;7.526;2023-04-19T14:19:03;1.63;;;0.75;;
73900;SDS011;62235;52.160;7.526;2023-04-19T14:21:28;1.88;;;0.88;;
73900;SDS011;62235;52.160;7.526;2023-04-19T14:23:54;2.65;;;1.23;;
73900;SDS011;62235;52.160;7.526;2023-04-19T14:26:19;2.22;;;1.40;;
73900;SDS011;62235;52.160;7.526;2023-04-19T14:28:45;4.68;;;1.73;;
73900;SDS011;62235;52.160;7.526;2023-04-19T14:31:10;4.20;;;1.60;;
73900;SDS011;62235;52.160;7.526;2023-04-19T14:33:35;4.28;;;1.50;;
73900;SDS011;62235;52.160;7.526;2023-04-19T14:36:01;4.15;;;1.77;;
73900;SDS011;62235;52.160;7.526;2023-04-19T14:38:26;2.33;;;1.50;;
73900;SDS011;62235;52.160;7.526;2023-04-19T14:40:51;3.13;;;1.00;;
73900;SDS011;62235;52.160;7.526;2023-04-19T14:43:17;1.90;;;1.20;;
73900;SDS011;62235;52.160;7.526;2023-04-19T14:45:42;4.53;;;1.02;;
73900;SDS011;62235;52.160;7.526;2023-04-19T14:48:07;2.17;;;1.00;;
73900;SDS011;62235;52.160;7.526;2023-04-19T14:50:33;3.63;;;1.50;;
73900;SDS011;62235;52.160;7.526;2023-04-19T14:52:58;2.58;;;1.50;;
73900;SDS011;62235;52.160;7.526;2023-04-19T14:55:24;3.60;;;1.63;;